• Join FlightAware (Why Join?)
  • Login
  • US Flag 
11:52PM EST


 

Airport Tracker/Info


-or-


 

Live Flight TrackerFlight Track Log ✈ SWA862 ✈ 06-Jul-2013 ✈ KMDW - KIAD

Flight Track Log - Related Links

Times and Time Zones

All times are in EDT time to prevent confusion due to time zone crossing. See the SWA862 flight status page for this flight to view local times or setup timezone preferences in your user account.

Time Position Orientation Groundspeed Altitude Reporting Facility
EDT Latitude Longitude Course Direction KTS MPH feet Rate Location/Type
04:48PM 41.8000 -87.8167 323° Northwest 232 267 3,000  Level Chicago TRACON
04:49PM 41.8200 -87.7647 63° Northeast 225 259 3,000 720 Level Chicago Center
04:50PM 41.8125 -87.6761 96° East 226 260 4,400 960 Climbing Chicago Center
04:51PM 41.8053 -87.5833 96° East 250 288 5,100 1,800 Climbing Chicago Center
04:52PM 41.7961 -87.4778 97° East 276 318 8,200 3,780 Climbing Chicago Center
04:53PM 41.7858 -87.3478 96° East 292 336 13,000 3,480 Climbing Chicago Center
04:54PM 41.7756 -87.2250 96° East 333 383 15,400 2,640 Climbing Chicago Center
04:55PM 41.7642 -87.0928 97° East 356 410 18,500 2,700 Climbing Chicago Center
04:56PM 41.7614 -86.9519 91° East 377 434 21,000 2,220 Climbing Chicago Center
04:57PM 41.7644 -86.8056 88° East 395 455 23,100 2,160 Climbing Chicago Center
04:58PM 41.7653 -86.6222 90° East 422 486 25,500 2,220 Climbing Chicago Center
04:59PM 41.7669 -86.4619 89° East 431 496 27,700 1,800 Climbing Chicago Center
05:00PM 41.7692 -86.2972 89° East 440 506 29,300 1,500 Climbing Chicago Center
05:01PM 41.7725 -86.1244 88° East 455 524 30,800 1,440 Climbing Chicago Center
05:02PM 41.7767 -85.9531 88° East 465 535 32,300 1,560 Climbing Chicago Center
05:03PM 41.7822 -85.7781 88° East 469 540 34,000 1,440 Climbing Chicago Center
05:04PM 41.7892 -85.5992 87° East 474 545 35,300 1,200 Climbing Chicago Center
05:05PM 41.7994 -85.4147 86° East 486 559 36,600 1,200 Climbing Chicago Center
05:06PM 41.7953 -85.2292 92° East 500 575 37,800 1,140 Climbing Chicago Center
05:07PM 41.7389 -85.0347 111° Southeast 471 542 39,000 540 Climbing Chicago Center
05:08PM 41.6925 -84.8711 111° Southeast 472 543 39,000  Level Chicago Center
05:09PM 41.6419 -84.7150 113° Southeast 461 531 39,000  Level Chicago Center
05:10PM 41.5908 -84.5586 114° Southeast 460 529 39,000  Level Chicago Center
05:11PM 41.5389 -84.4031 114° Southeast 459 528 39,000  Level Chicago Center
05:12PM 41.4883 -84.2489 114° Southeast 456 525 39,000  Level Chicago Center
05:13PM 41.4369 -84.0950 114° Southeast 454 522 39,000  Level Chicago Center
05:14PM 41.3747 -83.9128 114° Southeast 454 522 39,000  Level Chicago Center
05:15PM 41.3456 -83.8028 109° East 451 519 39,000  Level Cleveland Center
05:16PM 41.3147 -83.6353 104° East 451 519 39,000  Level Cleveland Center
05:17PM 41.2622 -83.4864 115° Southeast 451 519 39,000  Level Cleveland Center
05:18PM 41.2097 -83.3350 115° Southeast 445 512 39,000  Level Cleveland Center
05:19PM 41.1550 -83.1839 116° Southeast 451 519 39,000  Level Cleveland Center
05:20PM 41.0975 -83.0383 118° Southeast 451 519 39,000  Level Cleveland Center
05:21PM 41.0317 -82.9008 122° Southeast 451 519 39,000  Level Cleveland Center
05:22PM 40.9656 -82.7608 122° Southeast 446 513 39,000  Level Cleveland Center
05:24PM 40.8483 -82.5108 122° Southeast 443 510 39,000  Level Indianapolis Center
05:25PM 40.7836 -82.3750 122° Southeast 437 503 39,000  Level Indianapolis Center
05:26PM 40.7172 -82.2375 122° Southeast 441 507 39,000  Level Indianapolis Center
05:27PM 40.6511 -82.1011 123° Southeast 440 506 39,000  Level Indianapolis Center
05:28PM 40.5842 -81.9636 123° Southeast 444 511 39,000  Level Indianapolis Center
05:29PM 40.5181 -81.8283 123° Southeast 439 505 39,000  Level Indianapolis Center
05:30PM 40.4514 -81.6928 123° Southeast 440 506 39,000  Level Indianapolis Center
05:31PM 40.4086 -81.6028 122° Southeast 444 511 39,000  Level Cleveland Center
05:32PM 40.3389 -81.4683 124° Southeast 444 511 39,000  Level Cleveland Center
05:33PM 40.2692 -81.3206 122° Southeast 438 504 39,000  Level Cleveland Center
05:34PM 40.2031 -81.1839 122° Southeast 438 504 39,000  Level Cleveland Center
05:35PM 40.1369 -81.0528 123° Southeast 438 504 39,000  Level Cleveland Center
05:36PM 40.0750 -80.9275 123° Southeast 433 498 39,000  Level Cleveland Center
05:37PM 40.0086 -80.7972 124° Southeast 428 493 39,000  Level Cleveland Center
05:38PM 39.9461 -80.6697 123° Southeast 428 493 39,000  Level Cleveland Center
05:39PM 39.8858 -80.5369 121° Southeast 423 487 39,000 -240 Level Cleveland Center
05:40PM 39.8647 -80.3828 100° East 423 487 38,600 -720 Descending Cleveland Center
05:41PM 39.8914 -80.2233 78° East 415 478 37,600 -960 Descending Cleveland Center
05:42PM 39.9075 -80.0608 83° East 430 495 36,700 -960 Descending Cleveland Center
05:43PM 39.8339 -79.9478 130° Southeast 386 444 35,700 -960 Descending Cleveland Center
05:44PM 39.7458 -79.8406 137° Southeast 407 468 34,800 -1,560 Descending Cleveland Center
05:45PM 39.6094 -79.6669 136° Southeast 415 478 31,600 -2,400 Descending Washington Center
05:46PM 39.5194 -79.5517 135° Southeast 435 501 28,500 -2,340 Descending Washington Center
05:47PM 39.4742 -79.4039 112° Southeast 436 502 27,000 -1,380 Descending Washington Center
05:48PM 39.4419 -79.2331 104° East 431 496 25,800 -1,740 Descending Washington Center
05:49PM 39.4169 -79.0894 103° East 431 496 23,600 -2,160 Descending Washington Center
05:50PM 39.3919 -78.9458 103° East 421 484 21,500 -2,160 Descending Washington Center
05:51PM 39.3667 -78.8078 103° East 415 478 19,400 -1,980 Descending Washington Center
05:52PM 39.3450 -78.6753 102° East 397 457 17,600 -1,740 Descending Washington Center
05:53PM 39.3228 -78.5694 105° East 386 444 15,900 -2,100 Descending Washington Center
05:54PM 39.2950 -78.4156 103° East 375 432 13,400 -2,280 Descending Washington Center
05:55PM 39.2708 -78.2886 104° East 365 420 11,400 -1,680 Descending Washington Center
05:56PM 39.2756 -78.1656 87° East 352 405 10,200 -1,140 Descending Washington Center
05:57PM 39.2717 -78.0581 93° East 332 382 9,200 -1,200 Descending Washington Center
05:58PM 39.2614 -77.9506 97° East 307 353 7,800 -1,440 Descending Washington Center
05:59PM 39.2508 -77.8483 98° East 295 339 6,300 -1,500 Descending Washington Center
06:00PM 39.2381 -77.7489 99° East 290 334 4,900 -1,200 Descending Washington Center
06:01PM 39.2147 -77.6544 108° East 279 321 4,000 -480 Descending Washington Center
06:02PM 39.2000 -77.5667 102° East 238 274 3,900 -180 Descending Potomac TRACON
06:04PM 39.0871 -77.5179 165° South  Level FlightAware Approximate
06:04PM 39.1333 -77.4500 165° South 172 198 3,500  Level Potomac TRACON
06:05PM 39.1000 -77.4500 180° South 169 194 2,700 -840 Descending Potomac TRACON
06:07PM 38.9832 -77.4576 159° South  Level Estimated
06:07PM 39.0167 -77.4667 159° South 129 148 1,100  Level Potomac TRACON
06:09PM 38.9474 -77.4599 159° South  Level Estimated
06:16PM 38.9474 -77.4599 159° South  Level Estimated
06:17PM 38.9474 -77.4599 159° South  Level Estimated